Overview Statistics Trail Chart Weather Telemetry Raw packets
 

This is the latest recevied weather packets stored in our database for station/object F4JSG-10. If no packets are shown the sender has not sent any weather packets the latest 10 day(s).

<< 1 2 3 4 5 6 >>
Time Temp. Humidity Pressure Rain* Wind** Luminosity Snow
1788525771 38.89° C 22% 989.7 hPa - - - -
1788524871 38.89° C 21% 989.8 hPa - - - -
1788523971 37.78° C 22% 990.1 hPa - - - -
1788523071 38.33° C 22% 990.1 hPa - - - -
1788522171 38.33° C 22% 990.2 hPa - - - -
1788521271 38.89° C 21% 990.4 hPa - - - -
1788520371 39.44° C 21% 990.5 hPa - - - -
1788519471 39.44° C 21% 990.6 hPa - - - -
1788518571 39.44° C 21% 991 hPa - - - -
1788517670 38.33° C 22% 991.4 hPa - - - -
1788516770 37.78° C 23% 991.6 hPa - - - -
1788515870 37.22° C 25% 991.9 hPa - - - -
1788514970 35.56° C 27% 992.2 hPa - - - -
1788514070 34.44° C 27% 992.4 hPa - - - -
1788513170 33.89° C 28% 992.6 hPa - - - -
1788512270 32.22° C 32% 992.8 hPa - - - -
1788511370 31.67° C 32% 992.9 hPa - - - -
1788510470 30.56° C 35% 992.9 hPa - - - -
1788509570 30° C 38% 993 hPa - - - -
1788508669 28.33° C 41% 993.2 hPa - - - -
1788507769 27.78° C 45% 993.3 hPa - - - -
1788506869 24.44° C 55% 993.3 hPa - - - -
1788505969 21.67° C 64% 993.4 hPa - - - -
1788505069 19.44° C 75% 993.6 hPa - - - -
1788505030 19.44° C 75% 993.6 hPa - - - -

* Rain since midnight (hover to see other rain measurements)
** Current wind speed in m/s (hover to see current wind gust speed)